createdAt,value
2023-04-01T00:00:33.270Z,99043.59
2023-04-01T00:03:36.112Z,99045.25
2023-04-01T00:06:37.671Z,99035.16
2023-04-01T00:09:39.032Z,99045.28
2023-04-01T00:12:41.535Z,99040.28
2023-04-01T00:15:44.036Z,99032.44
2023-04-01T00:18:45.495Z,99045.81
2023-04-01T00:21:47.395Z,99036.97
2023-04-01T00:24:48.826Z,99045.81
2023-04-01T00:27:50.957Z,99034.66
2023-04-01T00:30:52.370Z,99036.53
2023-04-01T00:33:53.837Z,99040.88
2023-04-01T00:36:55.310Z,99036.25
2023-04-01T00:39:57.670Z,99030.06
2023-04-01T00:43:00.064Z,99045.94
2023-04-01T00:46:01.492Z,99045.09
2023-04-01T00:49:03.530Z,99043.25
2023-04-01T00:52:08.417Z,99048.59
2023-04-01T00:55:13.583Z,99042.56
2023-04-01T00:58:19.373Z,99049.53
2023-04-01T01:01:24.733Z,99036.97
2023-04-01T01:04:29.461Z,99047.66
2023-04-01T01:07:45.873Z,99045.81
2023-04-01T01:10:51.304Z,99038.97
2023-04-01T01:14:24.691Z,99031.84
2023-04-01T01:17:42.292Z,99039.16
2023-04-01T01:21:29.289Z,99018.00
2023-04-01T01:25:05.974Z,99036.72
2023-04-01T01:28:27.537Z,99026.16
2023-04-01T01:31:43.655Z,99019.88
2023-04-01T01:34:51.091Z,99014.34
2023-04-01T01:37:58.214Z,99017.91
2023-04-01T01:41:02.346Z,99010.00
2023-04-01T01:44:07.042Z,99014.34
2023-04-01T01:47:09.147Z,98998.38
2023-04-01T01:50:11.931Z,99007.88
2023-04-01T01:53:14.333Z,99006.16
2023-04-01T01:56:19.927Z,99006.00
2023-04-01T01:59:23.021Z,98999.38
2023-04-01T02:02:26.468Z,99003.78
2023-04-01T02:05:31.417Z,99011.00
2023-04-01T02:08:52.674Z,99004.72
2023-04-01T02:11:59.882Z,99001.06
2023-04-01T02:15:10.827Z,99000.53
2023-04-01T02:18:14.727Z,99001.22
2023-04-01T02:21:17.727Z,99001.13
2023-04-01T02:24:23.225Z,99008.09
2023-04-01T02:27:25.923Z,99004.69
2023-04-01T02:30:34.651Z,99005.34
2023-04-01T02:33:37.653Z,99000.19
2023-04-01T02:36:39.521Z,99001.78
2023-04-01T02:39:41.142Z,99001.03
2023-04-01T02:42:42.889Z,99005.28
2023-04-01T02:45:44.941Z,99003.41
2023-04-01T02:48:46.333Z,98993.03
2023-04-01T02:51:48.001Z,99009.63
2023-04-01T02:54:49.402Z,99011.09
2023-04-01T02:57:50.777Z,99010.91
2023-04-01T03:00:52.222Z,99012.88
2023-04-01T03:03:53.596Z,99013.50
2023-04-01T03:06:56.270Z,99016.13
2023-04-01T03:09:57.671Z,99007.03
2023-04-01T03:12:59.059Z,99005.66
2023-04-01T03:16:01.014Z,99005.72
2023-04-01T03:19:03.101Z,99005.47
2023-04-01T03:22:04.981Z,99010.00
2023-04-01T03:25:08.518Z,99019.25
2023-04-01T03:28:09.925Z,99010.94
2023-04-01T03:31:12.410Z,99021.25
2023-04-01T03:34:20.225Z,99018.75
2023-04-01T03:37:21.709Z,99024.22
2023-04-01T03:40:23.627Z,99016.47
2023-04-01T03:43:25.334Z,99028.69
2023-04-01T03:46:26.847Z,99003.22
2023-04-01T03:49:29.602Z,99010.59
2023-04-01T03:52:31.158Z,99017.56
2023-04-01T03:55:32.783Z,99019.28
2023-04-01T03:58:35.552Z,99019.28
2023-04-01T04:01:38.047Z,99014.41
2023-04-01T04:04:39.703Z,99033.72
2023-04-01T04:07:41.390Z,99030.16
2023-04-01T04:10:43.902Z,99022.50
2023-04-01T04:13:45.453Z,99033.59
2023-04-01T04:16:47.270Z,99028.31
2023-04-01T04:19:48.714Z,99033.16
2023-04-01T04:22:50.815Z,99037.50
2023-04-01T04:25:59.955Z,99031.75
2023-04-01T04:29:04.107Z,99030.91
2023-04-01T04:32:06.727Z,99032.06
2023-04-01T04:35:08.711Z,99038.13
2023-04-01T04:38:10.232Z,99021.72
2023-04-01T04:41:13.654Z,99021.72
2023-04-01T04:44:16.536Z,99014.25
2023-04-01T04:47:18.200Z,99007.47
2023-04-01T04:50:20.291Z,98999.75
2023-04-01T04:53:21.771Z,98999.63
2023-04-01T04:56:26.217Z,99003.19
2023-04-01T04:59:42.226Z,98992.44
2023-04-01T05:02:47.992Z,98996.34
2023-04-01T05:05:52.013Z,98995.28
2023-04-01T05:08:53.435Z,98986.28
2023-04-01T05:11:54.812Z,98990.03
2023-04-01T05:14:57.215Z,98994.53
2023-04-01T05:17:59.075Z,98983.84
2023-04-01T05:21:00.580Z,98992.34
2023-04-01T05:24:02.157Z,98994.78
2023-04-01T05:27:06.120Z,98989.53
2023-04-01T05:30:11.006Z,98986.56
2023-04-01T05:33:28.488Z,98987.47
2023-04-01T05:36:30.224Z,98991.56
2023-04-01T05:39:31.895Z,98987.84
2023-04-01T05:42:36.060Z,98980.00
2023-04-01T05:45:38.641Z,98993.09
2023-04-01T05:48:48.989Z,98981.72
2023-04-01T05:51:50.591Z,98985.28
2023-04-01T05:54:52.218Z,98988.50
2023-04-01T05:57:53.675Z,98977.19
2023-04-01T06:01:10.329Z,98983.50
2023-04-01T06:04:19.043Z,98992.25
2023-04-01T06:07:21.305Z,98988.66
2023-04-01T06:10:32.274Z,98986.03
2023-04-01T06:14:25.878Z,98987.66
2023-04-01T06:17:51.481Z,98981.72
2023-04-01T06:21:15.929Z,98978.81
2023-04-01T06:25:04.792Z,98982.13
2023-04-01T06:28:38.455Z,98987.00
2023-04-01T06:32:04.496Z,98992.16
2023-04-01T06:35:24.798Z,98989.63
2023-04-01T06:38:44.379Z,98978.66
2023-04-01T06:42:04.231Z,99006.50
2023-04-01T06:45:31.087Z,98999.97
2023-04-01T06:49:20.484Z,98985.59
2023-04-01T06:53:13.513Z,98987.56
2023-04-01T06:56:59.014Z,98985.78
2023-04-01T07:00:13.070Z,98999.72
2023-04-01T07:03:36.338Z,98989.34
2023-04-01T07:06:47.852Z,98990.84
2023-04-01T07:09:56.654Z,98990.22
2023-04-01T07:13:14.578Z,98980.63
2023-04-01T07:16:41.948Z,98990.97
2023-04-01T07:19:55.021Z,98998.13
2023-04-01T07:23:03.037Z,99007.69
2023-04-01T07:26:26.069Z,98983.91
2023-04-01T07:29:49.722Z,98994.88
2023-04-01T07:33:16.172Z,99000.47
2023-04-01T07:36:33.397Z,98993.00
2023-04-01T07:40:01.123Z,98996.50
2023-04-01T07:43:53.670Z,99003.09
2023-04-01T07:47:16.749Z,98997.84
2023-04-01T07:50:35.027Z,99001.66
2023-04-01T07:54:01.266Z,99016.19
2023-04-01T07:57:32.311Z,99013.31
2023-04-01T08:01:00.077Z,99006.25
2023-04-01T08:04:28.863Z,99023.34
2023-04-01T08:07:53.274Z,99000.72
2023-04-01T08:11:32.100Z,99006.69
2023-04-01T08:15:33.419Z,99012.63
2023-04-01T08:19:10.769Z,99015.34
2023-04-01T08:22:20.989Z,99004.75
2023-04-01T08:25:29.728Z,99022.84
2023-04-01T08:28:45.630Z,99000.25
2023-04-01T08:32:07.641Z,99011.13
2023-04-01T08:35:20.223Z,99004.66
2023-04-01T08:38:41.425Z,99018.75
2023-04-01T08:42:12.737Z,99011.63
2023-04-01T08:45:44.233Z,99002.88
2023-04-01T08:49:00.837Z,99022.31
2023-04-01T08:52:21.867Z,99024.22
2023-04-01T08:55:32.611Z,99028.88
2023-04-01T08:59:05.812Z,99017.25
2023-04-01T09:02:26.312Z,99024.22
2023-04-01T09:05:44.388Z,99032.78
2023-04-01T09:08:58.110Z,99030.00
2023-04-01T09:12:38.088Z,99041.03
2023-04-01T09:16:17.525Z,99024.53
2023-04-01T09:19:55.193Z,99033.28
2023-04-01T09:23:17.345Z,99023.06
2023-04-01T09:26:35.538Z,99038.81
2023-04-01T09:30:03.600Z,99023.84
2023-04-01T09:33:25.022Z,99047.31
2023-04-01T09:36:46.900Z,99040.16
2023-04-01T09:40:10.214Z,99037.63
2023-04-01T09:43:30.947Z,99048.97
2023-04-01T09:47:01.334Z,99043.06
2023-04-01T09:50:22.463Z,99056.00
2023-04-01T09:53:30.814Z,99052.84
2023-04-01T09:57:03.699Z,99057.84
2023-04-01T10:00:21.228Z,99050.06
2023-04-01T10:03:57.453Z,99050.38
2023-04-01T10:07:23.410Z,99052.16
2023-04-01T10:10:47.260Z,99056.66
2023-04-01T10:14:01.761Z,99052.31
2023-04-01T10:17:33.282Z,99056.22
2023-04-01T10:20:42.118Z,99048.13
2023-04-01T10:23:56.819Z,99065.22
2023-04-01T10:27:14.981Z,99060.88
2023-04-01T10:30:49.916Z,99074.00
2023-04-01T10:34:29.517Z,99055.22
2023-04-01T10:37:40.906Z,99060.03
2023-04-01T10:41:09.253Z,99064.88
2023-04-01T10:45:10.642Z,99066.97
2023-04-01T10:48:58.668Z,99069.19
2023-04-01T10:52:35.896Z,99068.19
2023-04-01T10:56:26.591Z,99072.59
2023-04-01T11:00:17.969Z,99064.34
2023-04-01T11:04:19.238Z,99066.13
2023-04-01T11:08:06.763Z,99074.63
2023-04-01T11:11:27.346Z,99065.25
2023-04-01T11:15:09.806Z,99069.59
2023-04-01T11:18:36.039Z,99073.69
2023-04-01T11:22:07.720Z,99085.03
2023-04-01T11:25:31.234Z,99079.31
2023-04-01T11:29:10.975Z,99074.97
2023-04-01T11:32:25.918Z,99077.75
2023-04-01T11:35:47.375Z,99088.16
2023-04-01T11:39:12.211Z,99093.81
2023-04-01T11:43:37.140Z,99090.03
2023-04-01T11:47:23.558Z,99094.72
2023-04-01T11:50:32.793Z,99093.88
2023-04-01T11:53:54.850Z,99097.59
2023-04-01T11:57:40.559Z,99094.72
2023-04-01T12:00:50.286Z,99112.94
2023-04-01T12:04:17.995Z,99114.31
2023-04-01T12:07:52.318Z,99102.44
2023-04-01T12:11:05.371Z,99111.97
2023-04-01T12:14:20.488Z,99117.41
2023-04-01T12:17:35.302Z,99114.41
2023-04-01T12:21:09.327Z,99126.50
2023-04-01T12:24:37.905Z,99104.03
2023-04-01T12:28:00.738Z,99109.50
2023-04-01T12:31:15.414Z,99111.00
2023-04-01T12:34:35.463Z,99125.56
2023-04-01T12:37:45.927Z,99121.91
2023-04-01T12:41:15.482Z,99114.22
2023-04-01T12:44:55.308Z,99115.69
2023-04-01T12:48:35.073Z,99119.88
2023-04-01T12:51:58.604Z,99111.66
2023-04-01T12:55:18.704Z,99124.78
2023-04-01T12:58:44.030Z,99121.22
2023-04-01T13:02:24.029Z,99121.47
2023-04-01T13:05:58.263Z,99121.88
2023-04-01T13:09:23.403Z,99130.19
2023-04-01T13:12:37.128Z,99130.19
2023-04-01T13:15:58.159Z,99136.88
2023-04-01T13:19:05.781Z,99146.22
2023-04-01T13:22:27.593Z,99142.66
2023-04-01T13:26:07.058Z,99147.16
2023-04-01T13:29:21.151Z,99142.16
2023-04-01T13:32:44.010Z,99155.88
2023-04-01T13:35:51.660Z,99149.94
2023-04-01T13:39:14.739Z,99159.81
2023-04-01T13:42:26.135Z,99166.78
2023-04-01T13:45:32.587Z,99154.53
2023-04-01T13:49:09.731Z,99166.50
2023-04-01T13:52:49.619Z,99162.81
2023-04-01T13:56:03.747Z,99165.44
2023-04-01T13:59:37.647Z,99165.28
2023-04-01T14:03:16.305Z,99167.06
2023-04-01T14:06:32.241Z,99171.78
2023-04-01T14:09:52.015Z,99169.41
2023-04-01T14:13:19.575Z,99181.06
2023-04-01T14:17:01.574Z,99177.19
2023-04-01T14:20:16.293Z,99171.41
2023-04-01T14:23:43.396Z,99169.22
2023-04-01T14:27:00.540Z,99180.91
2023-04-01T14:30:18.667Z,99183.34
2023-04-01T14:33:32.231Z,99177.72
2023-04-01T14:36:54.952Z,99186.56
2023-04-01T14:40:27.428Z,99179.63
2023-04-01T14:43:47.876Z,99187.25
2023-04-01T14:47:11.037Z,99195.09
2023-04-01T14:50:17.749Z,99198.69
2023-04-01T14:53:29.872Z,99196.78
2023-04-01T14:56:43.538Z,99204.31
2023-04-01T15:00:14.318Z,99206.09
2023-04-01T15:03:30.531Z,99203.47
2023-04-01T15:06:46.632Z,99212.50
2023-04-01T15:10:20.684Z,99216.16
2023-04-01T15:13:31.300Z,99215.38
2023-04-01T15:17:17.747Z,99229.91
2023-04-01T15:20:49.127Z,99216.25
2023-04-01T15:24:16.647Z,99226.03
2023-04-01T15:27:24.804Z,99226.13
2023-04-01T15:30:33.896Z,99221.44
2023-04-01T15:33:35.240Z,99223.50
2023-04-01T15:36:45.651Z,99225.78
2023-04-01T15:39:50.063Z,99225.09
2023-04-01T15:43:12.354Z,99225.28
2023-04-01T15:46:42.797Z,99229.31
2023-04-01T15:49:54.313Z,99232.25
2023-04-01T15:53:19.356Z,99231.06
2023-04-01T15:56:40.737Z,99237.72
2023-04-01T16:00:11.254Z,99234.31
2023-04-01T16:03:36.994Z,99237.38
2023-04-01T16:06:44.278Z,99245.00
2023-04-01T16:10:04.729Z,99253.56
2023-04-01T16:13:43.874Z,99239.72
2023-04-01T16:16:48.065Z,99242.25
2023-04-01T16:20:23.623Z,99252.47
2023-04-01T16:23:38.919Z,99257.75
2023-04-01T16:26:50.957Z,99262.72
2023-04-01T16:30:22.107Z,99266.84
2023-04-01T16:33:51.014Z,99267.25
2023-04-01T16:37:08.002Z,99263.88
2023-04-01T16:40:21.709Z,99270.34
2023-04-01T16:43:31.879Z,99269.41
2023-04-01T16:46:44.968Z,99277.06
2023-04-01T16:50:14.274Z,99281.81
2023-04-01T16:53:30.853Z,99278.59
2023-04-01T16:57:04.038Z,99286.53
2023-04-01T17:00:38.055Z,99294.59
2023-04-01T17:03:44.661Z,99300.47
2023-04-01T17:07:06.525Z,99304.06
2023-04-01T17:10:29.071Z,99312.06
2023-04-01T17:13:35.155Z,99310.44
2023-04-01T17:16:47.152Z,99310.63
2023-04-01T17:20:07.062Z,99307.06
2023-04-01T17:23:20.068Z,99307.81
2023-04-01T17:26:50.319Z,99320.84
2023-04-01T17:30:36.758Z,99331.75
2023-04-01T17:34:12.280Z,99324.41
2023-04-01T17:37:29.398Z,99330.81
2023-04-01T17:40:54.775Z,99332.69
2023-04-01T17:44:16.986Z,99342.13
2023-04-01T17:47:35.677Z,99340.94
2023-04-01T17:50:51.866Z,99349.22
2023-04-01T17:54:09.767Z,99355.16
2023-04-01T17:57:26.814Z,99354.69
2023-04-01T18:00:53.943Z,99355.22
2023-04-01T18:04:04.185Z,99367.88
2023-04-01T18:07:27.082Z,99365.63
2023-04-01T18:10:52.828Z,99362.38
2023-04-01T18:14:22.107Z,99362.56
2023-04-01T18:17:42.330Z,99374.44
2023-04-01T18:21:24.404Z,99374.06
2023-04-01T18:24:32.936Z,99391.50
2023-04-01T18:27:38.579Z,99390.22
2023-04-01T18:30:41.267Z,99389.59
2023-04-01T18:33:54.537Z,99399.13
2023-04-01T18:37:18.670Z,99405.31
2023-04-01T18:40:27.276Z,99413.53
2023-04-01T18:43:38.750Z,99415.44
2023-04-01T18:47:25.038Z,99421.69
2023-04-01T18:50:53.910Z,99423.41
2023-04-01T18:53:58.129Z,99429.16
2023-04-01T18:57:09.595Z,99432.56
2023-04-01T19:00:20.200Z,99437.06
2023-04-01T19:03:49.044Z,99435.50
2023-04-01T19:06:55.717Z,99441.00
2023-04-01T19:10:01.795Z,99446.81
2023-04-01T19:13:09.230Z,99456.19
2023-04-01T19:16:44.824Z,99454.78
2023-04-01T19:19:52.429Z,99455.75
2023-04-01T19:23:21.830Z,99462.72
2023-04-01T19:26:41.441Z,99467.84
2023-04-01T19:30:20.334Z,99470.31
2023-04-01T19:33:50.663Z,99470.63
2023-04-01T19:37:00.579Z,99470.47
2023-04-01T19:40:39.162Z,99477.59
2023-04-01T19:44:08.711Z,99474.03
2023-04-01T19:47:31.652Z,99474.22
2023-04-01T19:50:39.229Z,99474.41
2023-04-01T19:54:07.359Z,99480.59
2023-04-01T19:57:34.226Z,99479.78
2023-04-01T20:00:41.702Z,99485.19
2023-04-01T20:03:51.598Z,99494.31
2023-04-01T20:07:08.242Z,99496.00
2023-04-01T20:10:15.434Z,99491.97
2023-04-01T20:13:45.696Z,99497.97
2023-04-01T20:17:21.632Z,99498.25
2023-04-01T20:20:27.598Z,99512.69
2023-04-01T20:23:58.402Z,99516.53
2023-04-01T20:27:08.176Z,99523.34
2023-04-01T20:30:29.001Z,99520.69
2023-04-01T20:34:03.966Z,99529.47
2023-04-01T20:37:33.432Z,99521.69
2023-04-01T20:40:41.739Z,99534.63
2023-04-01T20:44:09.338Z,99532.09
2023-04-01T20:47:19.805Z,99537.38
2023-04-01T20:50:40.597Z,99543.91
2023-04-01T20:53:57.856Z,99540.69
2023-04-01T20:57:12.953Z,99542.47
2023-04-01T21:00:43.030Z,99551.09
2023-04-01T21:04:05.868Z,99547.88
2023-04-01T21:07:25.870Z,99543.88
2023-04-01T21:10:56.487Z,99542.03
2023-04-01T21:14:22.115Z,99547.47
2023-04-01T21:17:48.822Z,99549.03
2023-04-01T21:21:08.930Z,99554.28
2023-04-01T21:24:13.229Z,99559.69
2023-04-01T21:27:35.087Z,99558.97
2023-04-01T21:30:55.544Z,99559.06
2023-04-01T21:34:04.917Z,99568.22
2023-04-01T21:37:36.336Z,99575.56
2023-04-01T21:41:11.268Z,99567.75
2023-04-01T21:44:44.777Z,99577.34
2023-04-01T21:47:46.228Z,99580.91
2023-04-01T21:51:09.422Z,99578.06
2023-04-01T21:54:27.384Z,99584.03
2023-04-01T21:57:43.410Z,99594.44
2023-04-01T22:01:03.663Z,99592.59
2023-04-01T22:04:26.460Z,99590.91
2023-04-01T22:07:46.520Z,99588.53
2023-04-01T22:10:54.360Z,99601.81
2023-04-01T22:14:04.527Z,99596.56
2023-04-01T22:17:09.020Z,99603.69
2023-04-01T22:20:24.057Z,99604.63
2023-04-01T22:23:47.803Z,99607.09
2023-04-01T22:27:07.253Z,99613.31
2023-04-01T22:30:19.464Z,99622.19
2023-04-01T22:33:25.439Z,99622.41
2023-04-01T22:36:35.656Z,99625.00
2023-04-01T22:40:09.437Z,99619.56
2023-04-01T22:43:31.576Z,99631.97
2023-04-01T22:46:47.846Z,99630.38
2023-04-01T22:49:59.940Z,99635.28
2023-04-01T22:53:28.176Z,99641.06
2023-04-01T22:56:36.577Z,99634.66
2023-04-01T22:59:59.966Z,99642.63
2023-04-01T23:03:23.124Z,99650.41
2023-04-01T23:06:29.440Z,99640.13
2023-04-01T23:09:34.221Z,99649.66
2023-04-01T23:12:35.996Z,99650.03
2023-04-01T23:15:38.594Z,99652.72
2023-04-01T23:18:57.298Z,99651.97
2023-04-01T23:21:58.595Z,99654.44
2023-04-01T23:25:23.766Z,99663.28
2023-04-01T23:28:44.941Z,99665.22
2023-04-01T23:31:48.127Z,99670.75
2023-04-01T23:34:52.246Z,99668.31
2023-04-01T23:37:54.101Z,99674.88
2023-04-01T23:40:56.404Z,99680.94
2023-04-01T23:44:17.023Z,99692.97
2023-04-01T23:47:25.490Z,99689.00
2023-04-01T23:50:28.074Z,99693.28
2023-04-01T23:53:33.340Z,99696.97
2023-04-01T23:56:39.653Z,99702.38
2023-04-01T23:59:41.161Z,99705.97
